Poneto, Indiana
Current Conditions -  °F | °C
As of 5:55 PM on Friday 28 Nov 2014 (Local Time) from KHHG Reporting Station
Overcast Overcast  
Wind Chill: 23°   Ceiling: 11000
Heat Index: 31°   Visibility: 10mi
Dew Point: 20°   Wind: 8mph
Humidity: 65%   Direction: 160°SSE
Pressure: 30.08"   Gusts: NA
Location:  40.66°N, 85.22°W
Report Text: KHHG 282255Z AUTO 16007KT 10SM OVC110 M01/M07 A3008 RMK AO2 T10081067
Loading
Personal Weather Stations






























Interactive Weather Map New forecast layout! Learn more

10-Day Weather Forecast

Advertisements
Track Severe Weather on mobile